Jesús González

Olheiro-Chefe - Valencia
19 Ago 2027
Quinta-feira
Processo

Personalidade

Adaptabilidade (13) Ambição (1) Controvérsia (3) Lealdade (11) Pressão (2) Profissionalismo (9) Espírito Esportivo (15) Temperamento (3)

Perfil

Estilo de Treinamento Democrático
Licença Continental C
Determinação 8
Gestão de Pessoas 14
Motivação 12
Disciplina 15
Satisfação no Trabalho
100%
Fadiga
0%
Função Olheiro-Chefe
Salário 107.4K p/s
Contrato 14.03.2028

Desempenho

Comportamento Bom
Eficácia do Treinamento
50%
Desenvolvimento do Jogador
55%
Prevenção de Lesões
75%
Implementação Tática
40%

Eventos Recentes

Participou de uma reunião de recrutamento agora
Participou de uma reunião de recrutamento agora
Recomendou um alvo de transferência agora
Recomendou um alvo de transferência agora
Recomendou um alvo de transferência agora
Recomendou um alvo de transferência 7d atrás
Recomendou um alvo de transferência 7d atrás
Recomendou um alvo de transferência 7d atrás

Monitorando agora

203
Jogador Clube Status Habilidade Confiança Observado Última observação Último voto
Samuel Lucero Defensa y Justicia Ativo 119 / 121 40% 7 05.07.2027 -
David Valencia Alianza Petrolera Negociando 127 / 136 40% 2 05.07.2027 -
Dylan Lawlor Cardiff City Ativo 119 / 126 40% 2 05.07.2027 -
Izan Merino Málaga Perdido 129 / 118 40% 4 30.06.2027 -
João Simões Sporting CP Ativo 135 / 144 40% 2 30.06.2027 -
Daniel Kelly Oxford United Ativo 111 / 120 40% 4 30.06.2027 -
Yusi Alavés Ativo 131 / 142 40% 7 29.06.2027 -
Martim Cunha Porto Ativo 107 / 112 40% 2 29.06.2027 -
Johan Manzambi Newcastle United Ativo 142 / 151 40% 2 27.06.2027 -
Jaydee Canvot Crystal Palace Ativo 137 / 145 40% 1 27.06.2027 -
Matías Gómez Granada Ativo 118 / 121 40% 5 26.06.2027 -
Davide Bartesaghi AC Milan Ativo 132 / 134 40% 2 26.06.2027 -
Warren Zaïre-Emery Paris Saint-Germain Ativo 161 / 155 40% 4 25.06.2027 -
Afonso Assis Moreirense Ativo 114 / 116 40% 2 25.06.2027 -
Josh King Chelsea Ativo 139 / 145 40% 5 24.06.2027 -
Christ Inao Oulaï Fiorentina Ativo 140 / 133 40% 3 22.06.2027 -
José Pachuca Puebla Ativo 112 / 126 40% 2 21.06.2027 -
Caleb Yirenkyi Coventry City Ativo 134 / 147 40% 5 21.06.2027 -
Kevin Vazquez Cruz Azul Ativo 141 / 136 40% 10 16.06.2027 -
Alan Morinigo Olimpia Ativo 117 / 110 40% 1 16.06.2027 -
Ernie Weaver AFC Wimbledon Ativo 112 / 125 40% 3 15.06.2027 -
Nahuel Leivas Montevideo City Torque Ativo 107 / 112 40% 1 15.06.2027 -
Cheveyo Tsawa Club Brugge Ativo 117 / 135 40% 2 14.06.2027 -
Jorrel Hato Chelsea Ativo 145 / 162 40% 4 03.06.2027 -
Germán Valera Elche Ativo 138 / 132 40% 11 03.06.2027 -
Aune Heggebø West Bromwich Albion Ativo 131 / 126 40% 1 03.06.2027 -
Davide Bartesaghi AC Milan Perdido 130 / 127 40% 1 03.06.2027 -
Exequiel Palacios Valencia Negociando 157 / 157 66% 1 01.06.2027 Aprovar
Carlos Álvarez Borussia Dortmund Negociando 136 / 139 66% 1 01.06.2027 Aprovar
Marc Guéhi Manchester City Perdido 166 / 166 68% 1 01.06.2027 -
Florian Wirtz Liverpool Relatório pronto 169 / 171 69% 1 01.06.2027 Aprovar
Lorenzo Palmisani Frosinone Ativo 133 / 139 40% 5 30.05.2027 -
Tammy Abraham Aston Villa Ativo 145 / 143 40% 11 30.05.2027 -
James Trafford Leeds United Ativo 144 / 148 40% 5 30.05.2027 -
Giacomo Raspadori Atalanta Ativo 148 / 144 40% 6 30.05.2027 -
Álex Padilla Athletic Bilbao Ativo 135 / 138 40% 3 29.05.2027 Observar
Lucas Høgsberg RC Strasbourg Ativo 137 / 135 40% 1 29.05.2027 -
Maroan Sannadi Athletic Bilbao Ativo 136 / 129 40% 3 27.05.2027 -
Kai Havertz Arsenal Ativo 162 / 152 40% 10 26.05.2027 -
Andrés Martín Racing Santander Ativo 140 / 130 40% 12 26.05.2027 -
Ismaïla Sarr Crystal Palace Ativo 147 / 156 40% 2 26.05.2027 -
João Pedro Chelsea Ativo 152 / 150 40% 6 25.05.2027 -
Deniz Ertaş Konyaspor Ativo 127 / 144 40% 5 25.05.2027 -
Walid Juma Al Shaab Ativo 110 / 116 40% 1 25.05.2027 -
Diego Rossi Monterrey Ativo 138 / 126 40% 6 24.05.2027 -
Ez Abde Girona Ativo 156 / 155 40% 3 24.05.2027 -
Morgan Rogers Chelsea Ativo 165 / 151 40% 3 23.05.2027 -
Oli McBurnie Hull City Ativo 139 / 126 40% 4 21.05.2027 -
Alexander Sørloth Atlético Madrid Ativo 149 / 151 40% 2 21.05.2027 -
Mikel Oyarzábal Real Sociedad Ativo 165 / 154 40% 5 20.05.2027 -
Lucas Ocampos LOSC Lille Ativo 151 / 156 40% 3 20.05.2027 -
Pascal Loretz Luzern Ativo 134 / 139 40% 5 19.05.2027 -
Lautaro Martínez Inter Ativo 176 / 176 40% 11 19.05.2027 -
Aitor Fraga Real Sociedad Ativo 132 / 133 40% 1 19.05.2027 -
Lukáš Horníček Newcastle United Ativo 149 / 157 40% 1 19.05.2027 -
Jon Morcillo Almería Ativo 133 / 132 40% 1 19.05.2027 -
Gabriel Jesus Barcelona Ativo 152 / 165 40% 7 16.05.2027 -
Khalis Merah Toulouse FC Ativo 119 / 132 40% 1 16.05.2027 -
Hany Mukhtar Spezia Ativo 139 / 140 40% 1 16.05.2027 -
Javi Puado Espanyol Ativo 150 / 140 40% 4 15.05.2027 -
Gonçalo Ramos AC Milan Ativo 154 / 163 40% 4 15.05.2027 -
Matheus Cunha Manchester United Ativo 159 / 164 40% 6 13.05.2027 -
Radek Vítek Middlesbrough Ativo 136 / 138 40% 6 13.05.2027 -
Ademola Lookman Atlético Madrid Ativo 163 / 168 40% 5 13.05.2027 -
Dango Ouattara Brentford Ativo 145 / 155 40% 6 09.05.2027 -
Viktor Gyökeres Arsenal Ativo 161 / 162 40% 5 09.05.2027 -
Ferran Torres Paris Saint-Germain Ativo 170 / 169 40% 9 09.05.2027 Observar
Mathieu Patouillet Stade Brestois Ativo 118 / 127 40% 7 07.05.2027 -
Fedor Lapoukhov CSKA Sofia Ativo 115 / 110 40% 2 07.05.2027 -
Federico Chiesa Liverpool Ativo 159 / 146 40% 3 07.05.2027 -
Thiago Brentford Ativo 150 / 143 40% 8 07.05.2027 -
Antonio Gomis Vizela Ativo 125 / 134 40% 5 30.04.2027 -
Oliver Dovin Coventry City Ativo 132 / 136 40% 1 30.04.2027 -
Kostantis Tzolakis Hull City Ativo 141 / 141 40% 3 24.04.2027 -
Fahad Hassan Al Shabab Ativo 125 / 118 40% 3 23.04.2027 -
Cody Gakpo Liverpool Ativo 157 / 160 40% 5 18.04.2027 -
Robin Roefs Sunderland Ativo 142 / 140 40% 4 16.04.2027 -
Yussif Saidu Zaragoza Ativo 125 / 113 40% 1 14.04.2027 -
Finn Jeltsch VfB Stuttgart Ativo 134 / 142 40% 1 14.04.2027 -
Gonçalo Oliveira Benfica Ativo 112 / 116 40% 1 14.04.2027 -
Abel Ruiz Girona Ativo 144 / 135 40% 2 13.04.2027 -
João Teixeira Porto Ativo 103 / 105 40% 1 12.04.2027 -
Salvador Blopá Casa Pia Ativo 120 / 129 40% 1 12.04.2027 -
Noah Nartey Olympique Lyonnais Ativo 136 / 139 40% 1 12.04.2027 -
Mohammed Kudus Tottenham Ativo 156 / 152 40% 4 11.04.2027 -
Guillaume Restes Toulouse FC Ativo 136 / 142 40% 4 10.04.2027 -
Marcus Rashford Manchester United Ativo 155 / 156 40% 4 10.04.2027 -
Jorge De Frutos Rayo Vallecano Ativo 143 / 139 40% 3 10.04.2027 -
Erick Reyes Toluca Ativo 143 / 138 40% 4 09.04.2027 -
Diego Lainez Tigres Ativo 130 / 122 40% 5 07.04.2027 -
Derensili Sanches Fernandes Huddersfield Town Ativo 128 / 117 40% 2 07.04.2027 -
Edoardo Motta Lazio Ativo 129 / 137 40% 1 05.04.2027 -
Omar El Hilali Espanyol Ativo 147 / 158 40% 1 05.04.2027 -
William Saliba Arsenal Ativo 174 / 170 40% 1 05.04.2027 -
Levi Colwill Chelsea Ativo 162 / 163 40% 1 05.04.2027 -
Pablo Campos Levante Ativo 127 / 122 40% 4 03.04.2027 -
Gabriel Martinelli Brighton Ativo 166 / 164 40% 10 30.03.2027 -
Senne Lammens Manchester United Ativo 156 / 146 40% 5 29.03.2027 -
Aitor Ruibal Betis Ativo 141 / 132 40% 1 24.03.2027 -
Christos Mouzakitis Hull City Ativo 132 / 147 40% 4 22.03.2027 -
Louis Leroux FC Nantes Ativo 127 / 130 40% 1 22.03.2027 -
Jan Bürger Gillingham Ativo 113 / 125 40% 1 22.03.2027 -
Petar Musa Adana Demirspor Ativo 134 / 146 40% 1 22.03.2027 -
Nicolas Jackson Aston Villa Ativo 148 / 140 40% 4 21.03.2027 -
Borja Mayoral Getafe Ativo 147 / 128 40% 5 21.03.2027 -
Daniil Khudyakov Sturm Graz Ativo 126 / 131 40% 7 20.03.2027 -
David Ozoh Derby County Ativo 118 / 135 40% 2 19.03.2027 -
Razvan Balasa Crvena Zvezda Ativo 142 / 146 40% 4 17.03.2027 -
Jonathan Dubasin Osasuna Ativo 145 / 131 40% 2 10.03.2027 -
Bradley Barcola Liverpool Ativo 165 / 152 40% 7 09.03.2027 -
Fotis Ioannidis Rio Ave Ativo 144 / 142 40% 1 02.03.2027 -
Álex Baena Atlético Madrid Ativo 168 / 149 40% 9 28.02.2027 -
Taty Castellanos West Ham United Ativo 143 / 155 40% 2 25.02.2027 -
Georginio Rutter Brighton Ativo 145 / 153 40% 1 18.02.2027 -
Youssef En-Nesyri Al-Ittihad Ativo 138 / 128 40% 2 16.02.2027 -
Paulinho Palmeiras Ativo 141 / 151 40% 3 12.02.2027 -
Adnan Courtois KV Oostende Ativo 137 / 137 40% 2 12.02.2027 -
Hector Ramirez Newcastle United Ativo 150 / 161 40% 1 12.02.2027 -
Oleksandr Saputin Poltava Ativo 111 / 135 40% 2 29.01.2027 -
Alejandro Iturbe Elche Ativo 116 / 129 40% 1 29.01.2027 -
Heorhii Yermakov Metalist Ativo 109 / 121 40% 1 28.01.2027 -
Kyrylo Fesiun Shakhtar Ativo 115 / 128 40% 1 18.01.2027 -
Éderson Feyenoord Ativo 156 / 156 91% 1 01.01.2027 Aprovar
Raúl Rangel Sporting CP Negociando 132 / 132 66% 1 01.01.2027 Aprovar
Iliman N'Diaye Everton Ativo 163 / 148 40% 5 31.12.2026 -
Kyriani Sabbe Club Brugge Ativo 123 / 137 40% 2 29.12.2026 -
Joaquin Seys Club Brugge Ativo 129 / 126 40% 1 29.12.2026 -
Nico O'Reilly Manchester City Ativo 157 / 156 40% 5 28.12.2026 -
Ignacio Perruzzi San Lorenzo Ativo 125 / 133 40% 3 26.12.2026 -
Victor Castillo Ceará Ativo 130 / 139 40% 1 24.12.2026 -
Santiago Fernández Talleres Ativo 118 / 134 40% 3 21.12.2026 -
Nazareno Roselli Defensa y Justicia Ativo 111 / 111 40% 3 21.12.2026 -
Victor Froholdt Porto Ativo 152 / 156 40% 1 18.12.2026 -
El Hadji Malick Diouf Brentford Ativo 137 / 154 40% 1 17.12.2026 -
Matvey Kislyak CSKA Moscow Ativo 134 / 123 40% 1 17.12.2026 -
Rayan Cherki Manchester City Ativo 166 / 157 40% 6 15.12.2026 -
Ozziel Herrera Tigres Ativo 128 / 134 40% 9 12.12.2026 -
Erick Sánchez OGC Nice Ativo 144 / 141 40% 4 10.12.2026 -
Ramiro Sordo Santos Laguna Ativo 128 / 113 40% 2 10.12.2026 -
Jack Hinshelwood Brighton Ativo 138 / 150 40% 3 10.12.2026 -
James Dornelly Peterborough United Ativo 102 / 105 40% 1 10.12.2026 -
Lucas Agazzi Defensor Sporting Ativo 117 / 122 40% 3 08.12.2026 -
Alan Lescano Argentinos Juniors Ativo 128 / 126 40% 8 07.12.2026 -
Tyler Fredricson Oldham Athletic Ativo 102 / 102 40% 1 07.12.2026 -
Emi Rodriguez Leon Ativo 118 / 117 40% 4 05.12.2026 -
Carlos Vicente Birmingham Ativo 139 / 150 40% 4 04.12.2026 -
Tshepang Moremi Orlando Pirates Ativo 113 / 113 40% 1 04.12.2026 -
Ezequiel Bullaude Santos Laguna Ativo 121 / 130 40% 2 02.12.2026 -
Brian Rodríguez Club America Ativo 128 / 128 40% 3 30.11.2026 -
Tyrhys Dolan Espanyol Ativo 143 / 138 40% 1 30.11.2026 -
Martin Ødegaard Arsenal Ativo 179 / 170 40% 6 27.11.2026 -
Rodrygo Real Madrid Ativo 163 / 159 40% 2 26.11.2026 -
Pedri Barcelona Ativo 178 / 190 40% 5 24.11.2026 -
Daniel Arcila Leon Ativo 115 / 105 40% 1 24.11.2026 -
Johnny Cardoso Atlético Madrid Ativo 159 / 149 40% 3 19.11.2026 -
Iker Benito Queretaro Ativo 128 / 121 40% 3 18.11.2026 -
Johan Martínez Deportivo Cali Ativo 125 / 133 40% 1 18.11.2026 -
Anthony Gordon Barcelona Ativo 169 / 172 40% 1 17.11.2026 -
Oihan Sancet Athletic Bilbao Ativo 161 / 170 40% 4 13.11.2026 -
Brian Gutiérrez Guadalajara Ativo 128 / 129 40% 3 13.11.2026 -
Brahim Díaz Real Madrid Ativo 156 / 136 40% 1 13.11.2026 -
Noah Sadiki Sunderland Ativo 145 / 150 40% 3 12.11.2026 -
Tomás O'Connor Gimnasia y Esgrima Ativo 122 / 120 40% 1 12.11.2026 -
Javier Mena Portimonense Ativo 117 / 129 40% 4 10.11.2026 -
Nicolás Castro Toluca Ativo 123 / 139 40% 1 05.11.2026 -
Joaquín Gho Argentinos Juniors Ativo 127 / 121 40% 1 02.11.2026 -
Emerson Batalla Atletico Bucaramanga Ativo 123 / 123 40% 2 30.10.2026 -
Declan Rice Arsenal Ativo 184 / 177 40% 3 29.10.2026 -
Marcel Ruiz RC Lens Ativo 143 / 152 40% 2 27.10.2026 -
Alexander Díaz Deportivo Riestra Ativo 119 / 108 40% 1 27.10.2026 -
Dylan Borrero America de Cali Ativo 114 / 121 40% 1 27.10.2026 -
Santiago Montiel Independiente Ativo 126 / 119 40% 2 23.10.2026 -
Carlos Palacios Boca Juniors Ativo 129 / 127 40% 2 23.10.2026 -
Matías Fernández Independiente Rivadavia Ativo 123 / 124 40% 1 22.10.2026 -
Matko Miljevic Racing Club Ativo 130 / 130 40% 1 22.10.2026 -
Enzo Fernández Manchester City Ativo 166 / 174 40% 3 20.10.2026 -
Axel Frugone Defensor Sporting Ativo 115 / 109 40% 2 20.10.2026 -
Alexis González Lanús Ativo 96 / 110 40% 1 20.10.2026 -
Pablo Barrios Atlético Madrid Ativo 154 / 152 40% 1 16.10.2026 -
Tiago Palacios Estudiantes Ativo 127 / 122 40% 1 12.10.2026 -
Alexis Cuello San Lorenzo Ativo 125 / 121 40% 4 11.10.2026 -
Juan Pablo Domínguez Leon Ativo 127 / 116 40% 1 11.10.2026 -
Nahuel Herrera Penarol Ativo 120 / 116 40% 3 07.10.2026 -
Mateo Mendoza Godoy Cruz Ativo 119 / 138 40% 3 06.10.2026 -
Yuber Quiñónes Deportivo Pereira Ativo 118 / 111 40% 1 01.10.2026 -
Efraín Álvarez Guadalajara Ativo 131 / 131 40% 2 28.09.2026 -
Moisés Caicedo Chelsea Ativo 173 / 180 40% 1 28.09.2026 -
Rémi Lemoine Chamois Niortais Ativo 160 / 161 40% 1 25.09.2026 -
Vicente Poggi Godoy Cruz Ativo 124 / 114 40% 1 25.09.2026 -
Martín Campos Ferro Carril Oeste Ativo 116 / 124 40% 1 22.09.2026 -
Pedro Vite Pumas UNAM Ativo 121 / 124 40% 1 18.09.2026 -
Cole Palmer Chelsea Ativo 174 / 183 40% 1 16.09.2026 -
Aníbal Moreno River Plate Ativo 131 / 140 40% 2 15.09.2026 -
Martín Ortega Newell's Old Boys Ativo 120 / 131 40% 1 14.09.2026 -
Kevin Zenón Boca Juniors Ativo 129 / 114 40% 1 13.09.2026 -
Aarón Molinas Defensa y Justicia Ativo 129 / 125 40% 1 13.09.2026 -
Lucas Carrizo Plaza Colonia Ativo 114 / 111 40% 1 13.09.2026 -
Eric Meza Estudiantes Ativo 129 / 135 40% 1 12.09.2026 -
Rodrigo González Mitre Ativo 115 / 117 40% 1 08.09.2026 -
Nazareno Kihm Ferro Carril Oeste Ativo 106 / 108 40% 1 02.09.2026 -
Ignacio Ovando Rosario Central Ativo 97 / 123 40% 1 02.09.2026 -
Antoine Semenyo Manchester City Ativo 153 / 148 40% 1 01.08.2026 -
Dani Olmo Barcelona Ativo 155 / 156 40% 1 01.08.2026 -